createdAt,value
2018-08-28T00:00:46.385Z,20.16
2018-08-28T00:03:15.507Z,20.14
2018-08-28T00:05:44.666Z,20.14
2018-08-28T00:08:13.772Z,20.15
2018-08-28T00:10:42.861Z,20.14
2018-08-28T00:13:11.952Z,20.13
2018-08-28T00:15:41.057Z,20.06
2018-08-28T00:18:10.152Z,20.04
2018-08-28T00:20:39.340Z,19.99
2018-08-28T00:23:08.436Z,19.93
2018-08-28T00:25:37.636Z,19.90
2018-08-28T00:28:06.731Z,19.87
2018-08-28T00:30:35.836Z,19.76
2018-08-28T00:33:05.049Z,19.70
2018-08-28T00:35:34.116Z,19.67
2018-08-28T00:38:03.208Z,19.54
2018-08-28T00:40:32.332Z,19.54
2018-08-28T00:43:01.424Z,19.53
2018-08-28T00:45:30.598Z,19.51
2018-08-28T00:47:59.720Z,19.49
2018-08-28T00:50:28.896Z,19.29
2018-08-28T00:52:57.990Z,19.26
2018-08-28T00:55:27.122Z,19.20
2018-08-28T00:57:56.297Z,19.13
2018-08-28T01:00:25.377Z,19.14
2018-08-28T01:02:54.497Z,19.13
2018-08-28T01:05:24.538Z,19.16
2018-08-28T01:07:54.073Z,19.08
2018-08-28T01:10:23.272Z,19.11
2018-08-28T01:12:52.361Z,19.06
2018-08-28T01:15:21.440Z,19.04
2018-08-28T01:17:50.603Z,19.03
2018-08-28T01:20:19.688Z,18.91
2018-08-28T01:22:48.867Z,18.93
2018-08-28T01:25:17.959Z,18.84
2018-08-28T01:27:47.041Z,18.86
2018-08-28T01:30:20.309Z,18.73
2018-08-28T01:32:49.385Z,18.64
2018-08-28T01:35:18.647Z,18.62
2018-08-28T01:37:47.755Z,18.64
2018-08-28T01:40:16.837Z,18.72
2018-08-28T01:42:45.937Z,18.84
2018-08-28T01:45:15.142Z,18.89
2018-08-28T01:47:44.243Z,18.88
2018-08-28T01:50:13.439Z,18.78
2018-08-28T01:52:42.529Z,18.76
2018-08-28T01:55:11.618Z,18.60
2018-08-28T01:57:40.709Z,18.52
2018-08-28T02:00:09.827Z,18.59
2018-08-28T02:02:39.077Z,18.60
2018-08-28T02:05:08.557Z,18.64
2018-08-28T02:07:37.761Z,18.57
2018-08-28T02:10:07.621Z,18.54
2018-08-28T02:12:36.937Z,18.28
2018-08-28T02:15:06.149Z,18.11
2018-08-28T02:17:35.329Z,18.04
2018-08-28T02:20:04.919Z,18.03
2018-08-28T02:22:34.146Z,17.96
2018-08-28T02:25:03.227Z,17.99
2018-08-28T02:27:32.419Z,18.12
2018-08-28T02:30:01.501Z,18.01
2018-08-28T02:32:30.863Z,17.95
2018-08-28T02:34:59.998Z,17.89
2018-08-28T02:37:29.274Z,17.93
2018-08-28T02:39:58.531Z,17.89
2018-08-28T02:42:27.612Z,18.08
2018-08-28T02:44:56.696Z,18.08
2018-08-28T02:47:25.796Z,18.03
2018-08-28T02:49:54.994Z,17.70
2018-08-28T02:52:24.122Z,17.59
2018-08-28T02:54:53.280Z,17.56
2018-08-28T02:57:22.352Z,17.46
2018-08-28T02:59:51.448Z,17.49
2018-08-28T03:02:20.585Z,17.50
2018-08-28T03:04:49.755Z,17.65
2018-08-28T03:07:18.876Z,17.65
2018-08-28T03:09:48.063Z,17.49
2018-08-28T03:12:17.156Z,17.34
2018-08-28T03:14:46.255Z,17.15
2018-08-28T03:17:15.368Z,17.27
2018-08-28T03:19:44.465Z,17.47
2018-08-28T03:22:13.661Z,17.44
2018-08-28T03:24:42.824Z,17.23
2018-08-28T03:27:11.925Z,17.08
2018-08-28T03:29:41.019Z,17.19
2018-08-28T03:32:10.113Z,17.11
2018-08-28T03:34:39.205Z,17.00
2018-08-28T03:37:08.420Z,17.06
2018-08-28T03:39:37.528Z,17.07
2018-08-28T03:42:06.728Z,17.11
2018-08-28T03:44:35.935Z,17.07
2018-08-28T03:47:05.108Z,16.93
2018-08-28T03:49:34.416Z,16.84
2018-08-28T03:52:03.924Z,16.74
2018-08-28T03:54:33.020Z,16.84
2018-08-28T03:57:02.104Z,16.80
2018-08-28T03:59:31.214Z,16.74
2018-08-28T04:02:00.296Z,16.77
2018-08-28T04:04:29.383Z,16.67
2018-08-28T04:06:58.476Z,16.72
2018-08-28T04:09:27.568Z,16.72
2018-08-28T04:11:56.671Z,16.74
2018-08-28T04:14:25.928Z,16.68
2018-08-28T04:16:55.040Z,16.54
2018-08-28T04:19:24.124Z,16.50
2018-08-28T04:21:53.256Z,16.44
2018-08-28T04:24:22.348Z,16.43
2018-08-28T04:26:51.452Z,16.40
2018-08-28T04:29:20.648Z,16.45
2018-08-28T04:31:49.729Z,16.47
2018-08-28T04:34:18.824Z,16.58
2018-08-28T04:36:47.919Z,16.61
2018-08-28T04:39:17.019Z,16.61
2018-08-28T04:41:46.146Z,16.59
2018-08-28T04:44:15.320Z,16.59
2018-08-28T04:46:44.415Z,16.59
2018-08-28T04:49:13.501Z,16.59
2018-08-28T04:51:42.612Z,16.72
2018-08-28T04:54:11.761Z,16.69
2018-08-28T04:56:40.892Z,16.72
2018-08-28T04:59:10.211Z,16.73
2018-08-28T05:01:39.283Z,16.77
2018-08-28T05:04:08.386Z,16.80
2018-08-28T05:06:37.526Z,16.83
2018-08-28T05:09:07.144Z,16.87
2018-08-28T05:11:36.443Z,16.95
2018-08-28T05:14:05.520Z,17.00
2018-08-28T05:16:34.671Z,17.07
2018-08-28T05:19:03.816Z,17.18
2018-08-28T05:21:32.955Z,17.31
2018-08-28T05:24:02.073Z,17.33
2018-08-28T05:26:31.163Z,17.40
2018-08-28T05:29:00.298Z,17.45
2018-08-28T05:31:29.461Z,17.49
2018-08-28T05:33:58.545Z,17.53
2018-08-28T05:36:27.861Z,17.63
2018-08-28T05:38:56.953Z,17.76
2018-08-28T05:41:26.114Z,17.88
2018-08-28T05:43:55.256Z,17.94
2018-08-28T05:46:24.424Z,18.03
2018-08-28T05:48:53.537Z,18.07
2018-08-28T05:51:22.901Z,18.13
2018-08-28T05:53:52.040Z,18.19
2018-08-28T05:56:21.167Z,18.36
2018-08-28T05:58:50.818Z,18.43
2018-08-28T06:01:20.120Z,18.53
2018-08-28T06:03:49.188Z,18.65
2018-08-28T06:06:18.340Z,18.75
2018-08-28T06:08:47.499Z,18.80
2018-08-28T06:11:16.571Z,18.84
2018-08-28T06:13:45.728Z,18.97
2018-08-28T06:16:14.908Z,19.09
2018-08-28T06:18:44.010Z,19.09
2018-08-28T06:21:13.210Z,19.20
2018-08-28T06:23:42.293Z,19.27
2018-08-28T06:26:11.495Z,19.30
2018-08-28T06:28:40.815Z,19.34
2018-08-28T06:31:09.908Z,19.41
2018-08-28T06:33:39.086Z,19.45
2018-08-28T06:36:08.189Z,19.51
2018-08-28T06:38:37.387Z,19.56
2018-08-28T06:41:06.580Z,19.69
2018-08-28T06:43:35.757Z,19.78
2018-08-28T06:46:04.810Z,19.92
2018-08-28T06:48:33.901Z,19.99
2018-08-28T06:51:03.047Z,20.00
2018-08-28T06:53:32.157Z,20.00
2018-08-28T06:56:01.350Z,20.01
2018-08-28T06:58:30.460Z,20.12
2018-08-28T07:00:59.651Z,20.06
2018-08-28T07:03:28.766Z,20.11
2018-08-28T07:05:58.093Z,20.06
2018-08-28T07:08:27.172Z,20.12
2018-08-28T07:10:56.261Z,20.12
2018-08-28T07:13:25.409Z,20.07
2018-08-28T07:15:54.612Z,20.08
2018-08-28T07:18:23.721Z,20.09
2018-08-28T07:20:52.824Z,20.12
2018-08-28T07:23:21.939Z,20.18
2018-08-28T07:25:51.292Z,20.20
2018-08-28T07:28:20.215Z,20.31
2018-08-28T07:30:49.296Z,20.35
2018-08-28T07:33:18.550Z,20.33
2018-08-28T07:35:47.710Z,20.23
2018-08-28T07:38:16.888Z,20.42
2018-08-28T07:40:46.104Z,20.44
2018-08-28T07:43:15.396Z,20.39
2018-08-28T07:45:44.488Z,20.40
2018-08-28T07:48:13.684Z,20.52
2018-08-28T07:50:42.813Z,20.63
2018-08-28T07:53:11.904Z,20.59
2018-08-28T07:55:41.064Z,20.71
2018-08-28T07:58:10.168Z,20.76
2018-08-28T08:00:39.356Z,20.91
2018-08-28T08:03:08.456Z,20.97
2018-08-28T08:05:37.598Z,21.24
2018-08-28T08:08:06.746Z,21.32
2018-08-28T08:10:35.973Z,21.19
2018-08-28T08:13:04.967Z,21.09
2018-08-28T08:15:34.095Z,21.31
2018-08-28T08:18:03.141Z,21.28
2018-08-28T08:20:32.269Z,21.52
2018-08-28T08:23:01.419Z,21.65
2018-08-28T08:25:30.509Z,21.51
2018-08-28T08:27:59.780Z,21.43
2018-08-28T08:30:28.812Z,21.61
2018-08-28T08:32:57.929Z,21.66
2018-08-28T08:35:27.102Z,21.62
2018-08-28T08:37:56.212Z,21.54
2018-08-28T08:40:25.306Z,21.79
2018-08-28T08:42:54.400Z,21.82
2018-08-28T08:45:23.490Z,21.77
2018-08-28T08:47:52.832Z,21.47
2018-08-28T08:50:21.988Z,21.58
2018-08-28T08:52:51.094Z,21.61
2018-08-28T08:55:20.178Z,21.75
2018-08-28T08:57:49.380Z,21.80
2018-08-28T09:00:18.678Z,21.69
2018-08-28T09:02:48.061Z,21.69
2018-08-28T09:05:17.172Z,21.89
2018-08-28T09:07:46.264Z,21.74
2018-08-28T09:10:15.447Z,21.86
2018-08-28T09:12:44.589Z,22.23
2018-08-28T09:15:13.758Z,22.25
2018-08-28T09:17:42.863Z,21.92
2018-08-28T09:20:11.963Z,22.22
2018-08-28T09:22:41.063Z,22.16
2018-08-28T09:25:10.229Z,22.07
2018-08-28T09:27:39.357Z,22.39
2018-08-28T09:30:08.990Z,22.71
2018-08-28T09:32:38.225Z,22.73
2018-08-28T09:35:07.389Z,22.62
2018-08-28T09:37:36.562Z,22.36
2018-08-28T09:40:06.253Z,22.47
2018-08-28T09:42:35.469Z,22.62
2018-08-28T09:45:04.662Z,22.58
2018-08-28T09:47:33.836Z,22.88
2018-08-28T09:50:03.053Z,22.98
2018-08-28T09:52:32.133Z,22.94
2018-08-28T09:55:01.231Z,23.03
2018-08-28T09:57:30.344Z,23.26
2018-08-28T09:59:59.519Z,23.39
2018-08-28T10:02:28.721Z,23.37
2018-08-28T10:04:57.922Z,23.60
2018-08-28T10:07:27.010Z,23.36
2018-08-28T10:09:56.193Z,23.61
2018-08-28T10:12:25.321Z,23.66
2018-08-28T10:14:54.496Z,23.56
2018-08-28T10:17:23.670Z,23.61
2018-08-28T10:19:52.808Z,23.75
2018-08-28T10:22:21.992Z,23.46
2018-08-28T10:24:51.074Z,23.34
2018-08-28T10:27:20.297Z,23.23
2018-08-28T10:29:49.370Z,23.31
2018-08-28T10:32:18.467Z,23.24
2018-08-28T10:34:47.588Z,23.21
2018-08-28T10:37:16.694Z,23.26
2018-08-28T10:39:45.859Z,23.36
2018-08-28T10:42:15.148Z,23.33
2018-08-28T10:44:44.344Z,23.59
2018-08-28T10:47:13.516Z,23.69
2018-08-28T10:49:42.900Z,23.58
2018-08-28T10:52:12.050Z,23.86
2018-08-28T10:54:41.149Z,24.19
2018-08-28T10:57:10.359Z,24.23
2018-08-28T10:59:39.561Z,24.09
2018-08-28T11:02:08.673Z,23.93
2018-08-28T11:04:37.831Z,24.04
2018-08-28T11:07:06.861Z,24.22
2018-08-28T11:09:36.017Z,24.52
2018-08-28T11:12:05.132Z,24.77
2018-08-28T11:14:34.241Z,24.99
2018-08-28T11:17:03.353Z,25.35
2018-08-28T11:19:32.936Z,25.51
2018-08-28T11:22:02.107Z,25.38
2018-08-28T11:24:31.213Z,25.49
2018-08-28T11:27:00.433Z,25.39
2018-08-28T11:29:29.697Z,25.82
2018-08-28T11:31:58.805Z,26.20
2018-08-28T11:34:27.931Z,26.06
2018-08-28T11:36:57.286Z,25.92
2018-08-28T11:39:26.352Z,25.87
2018-08-28T11:41:55.642Z,26.01
2018-08-28T11:44:24.784Z,26.35
2018-08-28T11:46:53.872Z,26.68
2018-08-28T11:49:23.006Z,26.62
2018-08-28T11:51:52.332Z,27.17
2018-08-28T11:54:21.432Z,27.00
2018-08-28T11:56:50.534Z,26.55
2018-08-28T11:59:19.613Z,26.15
2018-08-28T12:01:48.773Z,26.50
2018-08-28T12:04:17.871Z,27.84
2018-08-28T12:06:46.992Z,28.42
2018-08-28T12:09:16.157Z,29.19
2018-08-28T12:11:45.358Z,30.32
2018-08-28T12:14:14.507Z,30.61
2018-08-28T12:16:43.642Z,29.85
2018-08-28T12:19:12.744Z,30.02
2018-08-28T12:21:42.010Z,31.05
2018-08-28T12:24:11.232Z,30.45
2018-08-28T12:26:40.419Z,31.02
2018-08-28T12:29:09.463Z,31.48
2018-08-28T12:31:38.584Z,31.83
2018-08-28T12:34:07.651Z,32.18
2018-08-28T12:36:36.899Z,32.44
2018-08-28T12:39:06.988Z,32.18
2018-08-28T12:41:36.216Z,33.12
2018-08-28T12:44:05.478Z,31.09
2018-08-28T12:46:34.537Z,32.66
2018-08-28T12:49:03.785Z,32.71
2018-08-28T12:51:32.992Z,33.38
2018-08-28T12:54:02.037Z,32.80
2018-08-28T12:56:31.105Z,32.92
2018-08-28T12:59:00.214Z,33.10
2018-08-28T13:01:29.412Z,32.89
2018-08-28T13:03:59.477Z,34.03
2018-08-28T13:06:28.765Z,34.30
2018-08-28T13:08:58.080Z,34.58
2018-08-28T13:11:27.872Z,34.08
2018-08-28T13:13:57.172Z,34.52
2018-08-28T13:16:26.264Z,34.70
2018-08-28T13:18:55.442Z,34.26
2018-08-28T13:21:24.728Z,33.74
2018-08-28T13:23:53.976Z,31.34
2018-08-28T13:26:23.076Z,30.45
2018-08-28T13:28:52.221Z,29.96
2018-08-28T13:31:21.308Z,29.41
2018-08-28T13:33:50.427Z,29.05
2018-08-28T13:36:20.210Z,31.30
2018-08-28T13:38:49.301Z,30.97
2018-08-28T13:41:18.430Z,30.77
2018-08-28T13:43:47.511Z,31.02
2018-08-28T13:46:16.599Z,32.86
2018-08-28T13:48:45.730Z,34.03
2018-08-28T13:51:15.120Z,34.60
2018-08-28T13:53:44.427Z,34.58
2018-08-28T13:56:13.494Z,34.24
2018-08-28T13:58:42.598Z,35.03
2018-08-28T14:01:11.756Z,34.03
2018-08-28T14:03:40.841Z,34.64
2018-08-28T14:06:09.979Z,34.79
2018-08-28T14:08:39.110Z,34.62
2018-08-28T14:11:08.277Z,34.93
2018-08-28T14:13:37.544Z,34.07
2018-08-28T14:16:06.593Z,34.74
2018-08-28T14:18:35.846Z,34.97
2018-08-28T14:21:04.968Z,35.12
2018-08-28T14:23:34.139Z,34.89
2018-08-28T14:26:03.209Z,35.42
2018-08-28T14:28:32.333Z,35.49
2018-08-28T14:31:01.412Z,35.13
2018-08-28T14:33:30.548Z,35.03
2018-08-28T14:35:59.643Z,34.09
2018-08-28T14:38:28.820Z,34.28
2018-08-28T14:40:57.925Z,34.38
2018-08-28T14:43:26.999Z,34.55
2018-08-28T14:45:56.113Z,34.29
2018-08-28T14:48:25.180Z,34.15
2018-08-28T14:50:54.286Z,34.95
2018-08-28T14:53:23.396Z,33.90
2018-08-28T14:55:52.508Z,33.74
2018-08-28T14:58:21.688Z,34.19
2018-08-28T15:00:50.794Z,34.20
2018-08-28T15:03:19.894Z,34.59
2018-08-28T15:05:48.972Z,34.33
2018-08-28T15:08:18.075Z,34.24
2018-08-28T15:10:47.180Z,34.50
2018-08-28T15:13:16.451Z,34.19
2018-08-28T15:15:45.506Z,34.34
2018-08-28T15:18:14.658Z,34.05
2018-08-28T15:20:43.838Z,33.90
2018-08-28T15:23:12.966Z,32.92
2018-08-28T15:25:42.153Z,33.18
2018-08-28T15:28:11.553Z,33.67
2018-08-28T15:30:40.633Z,33.23
2018-08-28T15:33:10.069Z,32.78
2018-08-28T15:35:39.240Z,31.97
2018-08-28T15:38:08.344Z,32.40
2018-08-28T15:40:37.453Z,32.74
2018-08-28T15:43:06.677Z,31.97
2018-08-28T15:45:35.720Z,32.26
2018-08-28T15:48:04.941Z,31.94
2018-08-28T15:50:34.120Z,31.06
2018-08-28T15:53:03.274Z,30.36
2018-08-28T15:55:32.425Z,29.53
2018-08-28T15:58:01.921Z,29.80
2018-08-28T16:00:31.029Z,29.06
2018-08-28T16:03:00.220Z,28.64
2018-08-28T16:05:29.328Z,28.78
2018-08-28T16:07:58.389Z,29.49
2018-08-28T16:10:27.460Z,30.31
2018-08-28T16:12:56.578Z,30.53
2018-08-28T16:15:25.778Z,30.93
2018-08-28T16:17:54.877Z,30.94
2018-08-28T16:20:23.992Z,31.05
2018-08-28T16:22:58.577Z,31.01
2018-08-28T16:25:27.704Z,31.22
2018-08-28T16:27:56.824Z,30.85
2018-08-28T16:30:25.993Z,30.79
2018-08-28T16:32:55.179Z,30.39
2018-08-28T16:35:24.343Z,30.38
2018-08-28T16:37:53.593Z,30.30
2018-08-28T16:40:22.779Z,29.85
2018-08-28T16:42:52.187Z,29.81
2018-08-28T16:45:21.281Z,29.19
2018-08-28T16:47:50.505Z,29.18
2018-08-28T16:50:19.910Z,28.88
2018-08-28T16:52:48.884Z,28.50
2018-08-28T16:55:17.989Z,27.99
2018-08-28T16:57:47.196Z,27.64
2018-08-28T17:00:16.402Z,27.44
2018-08-28T17:02:45.653Z,27.26
2018-08-28T17:05:16.704Z,27.11
2018-08-28T17:07:45.832Z,26.68
2018-08-28T17:10:14.984Z,26.60
2018-08-28T17:12:44.196Z,26.47
2018-08-28T17:15:13.312Z,26.25
2018-08-28T17:17:42.450Z,26.08
2018-08-28T17:20:11.608Z,26.07
2018-08-28T17:22:40.779Z,25.94
2018-08-28T17:25:09.876Z,25.94
2018-08-28T17:27:39.075Z,25.74
2018-08-28T17:30:08.303Z,25.62
2018-08-28T17:32:37.406Z,25.51
2018-08-28T17:35:06.800Z,25.42
2018-08-28T17:37:36.005Z,25.20
2018-08-28T17:40:05.378Z,25.10
2018-08-28T17:42:34.581Z,25.05
2018-08-28T17:45:03.749Z,25.04
2018-08-28T17:47:32.879Z,25.00
2018-08-28T17:50:02.067Z,25.00
2018-08-28T17:52:31.179Z,24.91
2018-08-28T17:55:01.155Z,24.65
2018-08-28T17:57:30.352Z,24.59
2018-08-28T17:59:59.464Z,24.58
2018-08-28T18:02:28.556Z,24.48
2018-08-28T18:04:57.673Z,24.43
2018-08-28T18:07:26.899Z,24.30
2018-08-28T18:09:56.056Z,24.30
2018-08-28T18:12:25.287Z,24.10
2018-08-28T18:14:54.530Z,23.93
2018-08-28T18:17:23.640Z,23.85
2018-08-28T18:19:52.723Z,23.65
2018-08-28T18:22:21.980Z,23.52
2018-08-28T18:24:51.147Z,23.55
2018-08-28T18:27:20.369Z,23.46
2018-08-28T18:29:49.569Z,23.31
2018-08-28T18:32:18.733Z,23.45
2018-08-28T18:34:47.912Z,23.13
2018-08-28T18:37:17.028Z,23.22
2018-08-28T18:39:46.215Z,23.17
2018-08-28T18:42:15.332Z,23.21
2018-08-28T18:44:44.520Z,23.28
2018-08-28T18:47:13.700Z,23.13
2018-08-28T18:49:42.828Z,23.02
2018-08-28T18:52:11.915Z,22.99
2018-08-28T18:54:41.020Z,22.65
2018-08-28T18:57:10.210Z,22.72
2018-08-28T18:59:39.416Z,22.64
2018-08-28T19:02:08.526Z,22.61
2018-08-28T19:04:37.622Z,22.56
2018-08-28T19:07:06.789Z,22.50
2018-08-28T19:09:35.888Z,22.41
2018-08-28T19:12:04.992Z,22.25
2018-08-28T19:14:34.162Z,22.23
2018-08-28T19:17:03.267Z,22.28
2018-08-28T19:19:32.529Z,22.21
2018-08-28T19:22:01.655Z,22.06
2018-08-28T19:24:30.851Z,22.11
2018-08-28T19:26:59.952Z,21.95
2018-08-28T19:29:29.227Z,22.00
2018-08-28T19:31:58.342Z,21.75
2018-08-28T19:34:27.489Z,21.88
2018-08-28T19:36:56.645Z,21.65
2018-08-28T19:39:25.763Z,21.75
2018-08-28T19:41:54.945Z,21.51
2018-08-28T19:44:24.252Z,21.56
2018-08-28T19:46:53.785Z,21.49
2018-08-28T19:49:23.069Z,21.37
2018-08-28T19:51:52.522Z,21.50
2018-08-28T19:54:21.717Z,21.18
2018-08-28T19:56:50.844Z,21.19
2018-08-28T19:59:19.936Z,21.17
2018-08-28T20:01:49.115Z,21.11
2018-08-28T20:04:18.350Z,21.01
2018-08-28T20:06:47.454Z,20.99
2018-08-28T20:09:16.568Z,21.01
2018-08-28T20:11:45.785Z,21.08
2018-08-28T20:14:15.164Z,21.25
2018-08-28T20:16:44.346Z,21.04
2018-08-28T20:19:13.648Z,20.91
2018-08-28T20:21:42.764Z,20.90
2018-08-28T20:24:11.892Z,20.79
2018-08-28T20:26:41.122Z,20.68
2018-08-28T20:29:10.314Z,20.67
2018-08-28T20:31:39.400Z,20.51
2018-08-28T20:34:08.582Z,20.22
2018-08-28T20:36:37.710Z,20.32
2018-08-28T20:39:07.159Z,20.44
2018-08-28T20:41:37.018Z,20.17
2018-08-28T20:44:06.556Z,20.28
2018-08-28T20:46:36.009Z,20.37
2018-08-28T20:49:05.330Z,20.39
2018-08-28T20:51:34.472Z,20.32
2018-08-28T20:54:03.661Z,20.24
2018-08-28T20:56:32.804Z,19.96
2018-08-28T20:59:02.008Z,19.89
2018-08-28T21:01:31.096Z,19.82
2018-08-28T21:04:00.205Z,19.71
2018-08-28T21:06:29.465Z,19.78
2018-08-28T21:08:58.597Z,19.83
2018-08-28T21:11:27.829Z,19.76
2018-08-28T21:13:56.937Z,19.69
2018-08-28T21:16:26.061Z,19.88
2018-08-28T21:18:55.181Z,19.77
2018-08-28T21:21:24.290Z,19.70
2018-08-28T21:23:53.473Z,19.65
2018-08-28T21:26:22.748Z,19.60
2018-08-28T21:28:51.892Z,19.59
2018-08-28T21:31:21.072Z,19.57
2018-08-28T21:33:50.258Z,19.42
2018-08-28T21:36:19.872Z,19.45
2018-08-28T21:38:49.064Z,19.29
2018-08-28T21:41:18.234Z,19.22
2018-08-28T21:43:47.352Z,19.17
2018-08-28T21:46:16.591Z,19.24
2018-08-28T21:48:45.680Z,19.30
2018-08-28T21:51:14.792Z,19.46
2018-08-28T21:53:43.941Z,19.44
2018-08-28T21:56:13.127Z,19.30
2018-08-28T21:58:42.243Z,19.27
2018-08-28T22:01:12.224Z,19.14
2018-08-28T22:03:42.625Z,19.19
2018-08-28T22:06:17.174Z,19.23
2018-08-28T22:08:46.252Z,19.06
2018-08-28T22:11:15.362Z,18.88
2018-08-28T22:13:44.604Z,18.81
2018-08-28T22:16:13.732Z,18.96
2018-08-28T22:18:42.824Z,19.00
2018-08-28T22:21:11.966Z,18.86
2018-08-28T22:23:41.079Z,18.77
2018-08-28T22:26:10.272Z,18.74
2018-08-28T22:28:39.408Z,18.89
2018-08-28T22:31:08.508Z,18.70
2018-08-28T22:33:37.629Z,18.65
2018-08-28T22:36:06.802Z,18.67
2018-08-28T22:38:35.908Z,18.60
2018-08-28T22:41:05.071Z,18.54
2018-08-28T22:43:34.169Z,18.61
2018-08-28T22:46:03.264Z,18.55
2018-08-28T22:48:32.445Z,18.51
2018-08-28T22:51:01.538Z,18.52
2018-08-28T22:53:30.631Z,18.52
2018-08-28T22:55:59.798Z,18.50
2018-08-28T22:58:28.900Z,18.45
2018-08-28T23:00:57.993Z,18.48
2018-08-28T23:03:27.091Z,18.57
2018-08-28T23:05:56.204Z,18.38
2018-08-28T23:08:25.309Z,18.41
2018-08-28T23:10:54.400Z,18.41
2018-08-28T23:13:23.571Z,18.44
2018-08-28T23:15:52.672Z,18.43
2018-08-28T23:18:21.774Z,18.50
2018-08-28T23:20:50.889Z,18.48
2018-08-28T23:23:20.063Z,18.31
2018-08-28T23:25:49.177Z,18.30
2018-08-28T23:28:18.376Z,18.31
2018-08-28T23:30:47.580Z,18.17
2018-08-28T23:33:16.743Z,18.22
2018-08-28T23:35:45.868Z,18.11
2018-08-28T23:38:14.963Z,18.12
2018-08-28T23:40:44.125Z,18.12
2018-08-28T23:43:13.240Z,17.99
2018-08-28T23:45:42.333Z,17.89
2018-08-28T23:48:11.523Z,17.97
2018-08-28T23:50:40.644Z,17.99
2018-08-28T23:53:09.743Z,18.00
2018-08-28T23:55:39.017Z,17.92
2018-08-28T23:58:08.137Z,17.76
